sensor_id;sensor_type;location;lat;lon;timestamp;P1;durP1;ratioP1;P2;durP2;ratioP2
75246;SDS011;63844;50.042;19.224;2024-01-16T00:00:48;6.60;;;3.40;;
75246;SDS011;63844;50.042;19.224;2024-01-16T00:02:44;6.60;;;3.40;;
75246;SDS011;63844;50.042;19.224;2024-01-16T00:04:21;5.50;;;3.10;;
75246;SDS011;63844;50.042;19.224;2024-01-16T00:05:57;7.60;;;3.60;;
75246;SDS011;63844;50.042;19.224;2024-01-16T00:07:36;9.50;;;4.00;;
75246;SDS011;63844;50.042;19.224;2024-01-16T00:09:15;6.30;;;2.70;;
75246;SDS011;63844;50.042;19.224;2024-01-16T00:10:51;7.50;;;3.20;;
75246;SDS011;63844;50.042;19.224;2024-01-16T00:12:28;7.30;;;3.10;;
75246;SDS011;63844;50.042;19.224;2024-01-16T00:14:04;7.40;;;3.80;;
75246;SDS011;63844;50.042;19.224;2024-01-16T00:15:41;8.90;;;3.10;;
75246;SDS011;63844;50.042;19.224;2024-01-16T00:17:17;6.70;;;3.50;;
75246;SDS011;63844;50.042;19.224;2024-01-16T00:18:54;6.50;;;2.80;;
75246;SDS011;63844;50.042;19.224;2024-01-16T00:20:30;7.70;;;3.30;;
75246;SDS011;63844;50.042;19.224;2024-01-16T00:22:07;6.50;;;3.40;;
75246;SDS011;63844;50.042;19.224;2024-01-16T00:23:43;6.30;;;3.10;;
75246;SDS011;63844;50.042;19.224;2024-01-16T00:25:20;9.90;;;3.90;;
75246;SDS011;63844;50.042;19.224;2024-01-16T00:26:56;6.50;;;3.20;;
75246;SDS011;63844;50.042;19.224;2024-01-16T00:28:32;7.50;;;3.90;;
75246;SDS011;63844;50.042;19.224;2024-01-16T00:30:09;8.80;;;4.20;;
75246;SDS011;63844;50.042;19.224;2024-01-16T00:31:46;7.30;;;4.10;;
75246;SDS011;63844;50.042;19.224;2024-01-16T00:33:23;7.40;;;4.10;;
75246;SDS011;63844;50.042;19.224;2024-01-16T00:35:00;9.50;;;5.10;;
75246;SDS011;63844;50.042;19.224;2024-01-16T00:36:36;9.70;;;4.40;;
75246;SDS011;63844;50.042;19.224;2024-01-16T00:38:13;9.60;;;4.70;;
75246;SDS011;63844;50.042;19.224;2024-01-16T00:39:49;8.50;;;4.50;;
75246;SDS011;63844;50.042;19.224;2024-01-16T00:41:26;7.60;;;4.10;;
75246;SDS011;63844;50.042;19.224;2024-01-16T00:43:03;10.00;;;4.80;;
75246;SDS011;63844;50.042;19.224;2024-01-16T00:44:39;7.50;;;3.60;;
75246;SDS011;63844;50.042;19.224;2024-01-16T00:46:16;6.60;;;3.80;;
75246;SDS011;63844;50.042;19.224;2024-01-16T00:47:52;7.50;;;3.90;;
75246;SDS011;63844;50.042;19.224;2024-01-16T00:49:29;11.50;;;4.80;;
75246;SDS011;63844;50.042;19.224;2024-01-16T00:51:05;8.40;;;4.10;;
75246;SDS011;63844;50.042;19.224;2024-01-16T00:52:41;8.50;;;4.10;;
75246;SDS011;63844;50.042;19.224;2024-01-16T00:55:54;9.40;;;4.10;;
75246;SDS011;63844;50.042;19.224;2024-01-16T00:57:31;6.10;;;3.30;;
75246;SDS011;63844;50.042;19.224;2024-01-16T00:59:07;8.20;;;4.60;;
75246;SDS011;63844;50.042;19.224;2024-01-16T01:00:43;10.70;;;4.50;;
75246;SDS011;63844;50.042;19.224;2024-01-16T01:02:20;7.00;;;3.60;;
75246;SDS011;63844;50.042;19.224;2024-01-16T01:03:56;11.70;;;5.10;;
75246;SDS011;63844;50.042;19.224;2024-01-16T01:05:33;6.90;;;3.70;;
75246;SDS011;63844;50.042;19.224;2024-01-16T01:07:12;9.20;;;4.20;;
75246;SDS011;63844;50.042;19.224;2024-01-16T01:08:49;12.70;;;5.40;;
75246;SDS011;63844;50.042;19.224;2024-01-16T01:10:25;10.20;;;4.70;;
75246;SDS011;63844;50.042;19.224;2024-01-16T01:12:02;9.60;;;4.20;;
75246;SDS011;63844;50.042;19.224;2024-01-16T01:13:38;9.80;;;4.40;;
75246;SDS011;63844;50.042;19.224;2024-01-16T01:15:15;12.40;;;5.00;;
75246;SDS011;63844;50.042;19.224;2024-01-16T01:16:51;9.20;;;4.50;;
75246;SDS011;63844;50.042;19.224;2024-01-16T01:18:28;8.80;;;4.80;;
75246;SDS011;63844;50.042;19.224;2024-01-16T01:20:05;9.50;;;4.90;;
75246;SDS011;63844;50.042;19.224;2024-01-16T01:21:42;8.10;;;4.20;;
75246;SDS011;63844;50.042;19.224;2024-01-16T01:23:19;10.00;;;4.90;;
75246;SDS011;63844;50.042;19.224;2024-01-16T01:24:55;9.50;;;4.20;;
75246;SDS011;63844;50.042;19.224;2024-01-16T01:28:08;10.30;;;3.80;;
75246;SDS011;63844;50.042;19.224;2024-01-16T01:29:45;8.00;;;3.60;;
75246;SDS011;63844;50.042;19.224;2024-01-16T01:31:22;8.70;;;3.60;;
75246;SDS011;63844;50.042;19.224;2024-01-16T01:32:59;9.10;;;4.20;;
75246;SDS011;63844;50.042;19.224;2024-01-16T01:34:35;8.70;;;3.80;;
75246;SDS011;63844;50.042;19.224;2024-01-16T01:36:12;6.60;;;3.60;;
75246;SDS011;63844;50.042;19.224;2024-01-16T01:37:48;6.80;;;3.60;;
75246;SDS011;63844;50.042;19.224;2024-01-16T01:39:25;9.30;;;4.10;;
75246;SDS011;63844;50.042;19.224;2024-01-16T01:41:02;5.30;;;2.30;;
75246;SDS011;63844;50.042;19.224;2024-01-16T01:42:40;8.20;;;4.40;;
75246;SDS011;63844;50.042;19.224;2024-01-16T01:44:17;6.90;;;3.90;;
75246;SDS011;63844;50.042;19.224;2024-01-16T01:45:56;7.30;;;3.80;;
75246;SDS011;63844;50.042;19.224;2024-01-16T01:47:44;6.70;;;3.70;;
75246;SDS011;63844;50.042;19.224;2024-01-16T01:49:21;6.50;;;3.50;;
75246;SDS011;63844;50.042;19.224;2024-01-16T01:50:59;7.20;;;3.50;;
75246;SDS011;63844;50.042;19.224;2024-01-16T01:52:38;6.00;;;3.20;;
75246;SDS011;63844;50.042;19.224;2024-01-16T01:54:16;8.50;;;3.60;;
75246;SDS011;63844;50.042;19.224;2024-01-16T01:55:55;7.90;;;3.70;;
75246;SDS011;63844;50.042;19.224;2024-01-16T01:57:32;5.20;;;2.90;;
75246;SDS011;63844;50.042;19.224;2024-01-16T01:59:09;7.70;;;3.50;;
75246;SDS011;63844;50.042;19.224;2024-01-16T02:00:47;8.40;;;3.70;;
75246;SDS011;63844;50.042;19.224;2024-01-16T02:02:23;7.10;;;3.30;;
75246;SDS011;63844;50.042;19.224;2024-01-16T02:04:00;10.90;;;4.30;;
75246;SDS011;63844;50.042;19.224;2024-01-16T02:05:38;7.70;;;4.20;;
75246;SDS011;63844;50.042;19.224;2024-01-16T02:07:15;4.90;;;3.10;;
75246;SDS011;63844;50.042;19.224;2024-01-16T02:08:52;8.80;;;4.00;;
75246;SDS011;63844;50.042;19.224;2024-01-16T02:10:29;8.40;;;4.10;;
75246;SDS011;63844;50.042;19.224;2024-01-16T02:12:06;7.90;;;3.90;;
75246;SDS011;63844;50.042;19.224;2024-01-16T02:13:43;6.90;;;3.90;;
75246;SDS011;63844;50.042;19.224;2024-01-16T02:15:20;8.30;;;3.60;;
75246;SDS011;63844;50.042;19.224;2024-01-16T02:16:56;4.60;;;2.40;;
75246;SDS011;63844;50.042;19.224;2024-01-16T02:18:32;6.30;;;2.90;;
75246;SDS011;63844;50.042;19.224;2024-01-16T02:20:09;6.10;;;3.50;;
75246;SDS011;63844;50.042;19.224;2024-01-16T02:21:47;7.00;;;3.90;;
75246;SDS011;63844;50.042;19.224;2024-01-16T02:23:26;7.60;;;3.40;;
75246;SDS011;63844;50.042;19.224;2024-01-16T02:25:04;6.30;;;3.00;;
75246;SDS011;63844;50.042;19.224;2024-01-16T02:26:41;6.90;;;2.90;;
75246;SDS011;63844;50.042;19.224;2024-01-16T02:28:17;7.60;;;3.50;;
75246;SDS011;63844;50.042;19.224;2024-01-16T02:29:54;8.00;;;3.80;;
75246;SDS011;63844;50.042;19.224;2024-01-16T02:31:31;5.30;;;2.50;;
75246;SDS011;63844;50.042;19.224;2024-01-16T02:33:08;5.40;;;3.10;;
75246;SDS011;63844;50.042;19.224;2024-01-16T02:34:45;6.60;;;2.30;;
75246;SDS011;63844;50.042;19.224;2024-01-16T02:36:21;6.30;;;3.00;;
75246;SDS011;63844;50.042;19.224;2024-01-16T02:37:58;8.00;;;3.40;;
75246;SDS011;63844;50.042;19.224;2024-01-16T02:39:36;6.00;;;3.40;;
75246;SDS011;63844;50.042;19.224;2024-01-16T02:41:13;4.70;;;2.60;;
75246;SDS011;63844;50.042;19.224;2024-01-16T02:42:50;7.80;;;3.50;;
75246;SDS011;63844;50.042;19.224;2024-01-16T02:44:27;5.80;;;3.20;;
75246;SDS011;63844;50.042;19.224;2024-01-16T02:46:03;6.90;;;3.30;;
75246;SDS011;63844;50.042;19.224;2024-01-16T02:47:40;7.20;;;2.90;;
75246;SDS011;63844;50.042;19.224;2024-01-16T02:49:16;5.80;;;2.60;;
75246;SDS011;63844;50.042;19.224;2024-01-16T02:50:53;5.90;;;3.20;;
75246;SDS011;63844;50.042;19.224;2024-01-16T02:52:29;7.90;;;3.20;;
75246;SDS011;63844;50.042;19.224;2024-01-16T02:54:06;5.50;;;2.20;;
75246;SDS011;63844;50.042;19.224;2024-01-16T02:55:44;5.90;;;3.00;;
75246;SDS011;63844;50.042;19.224;2024-01-16T02:58:57;5.50;;;2.50;;
75246;SDS011;63844;50.042;19.224;2024-01-16T03:00:33;5.80;;;2.90;;
75246;SDS011;63844;50.042;19.224;2024-01-16T03:02:09;5.10;;;2.60;;
75246;SDS011;63844;50.042;19.224;2024-01-16T03:03:46;8.50;;;3.50;;
75246;SDS011;63844;50.042;19.224;2024-01-16T03:05:22;7.20;;;3.20;;
75246;SDS011;63844;50.042;19.224;2024-01-16T03:06:59;7.10;;;3.60;;
75246;SDS011;63844;50.042;19.224;2024-01-16T03:08:35;5.80;;;3.10;;
75246;SDS011;63844;50.042;19.224;2024-01-16T03:10:12;6.30;;;2.60;;
75246;SDS011;63844;50.042;19.224;2024-01-16T03:13:24;6.60;;;3.60;;
75246;SDS011;63844;50.042;19.224;2024-01-16T03:15:01;8.40;;;3.30;;
75246;SDS011;63844;50.042;19.224;2024-01-16T03:16:38;6.90;;;3.60;;
75246;SDS011;63844;50.042;19.224;2024-01-16T03:18:14;7.00;;;3.80;;
75246;SDS011;63844;50.042;19.224;2024-01-16T03:19:50;6.40;;;2.60;;
75246;SDS011;63844;50.042;19.224;2024-01-16T03:21:27;6.70;;;3.30;;
75246;SDS011;63844;50.042;19.224;2024-01-16T03:24:40;6.80;;;2.90;;
75246;SDS011;63844;50.042;19.224;2024-01-16T03:27:53;6.90;;;3.00;;
75246;SDS011;63844;50.042;19.224;2024-01-16T03:29:30;6.30;;;2.80;;
75246;SDS011;63844;50.042;19.224;2024-01-16T03:31:06;8.70;;;3.90;;
75246;SDS011;63844;50.042;19.224;2024-01-16T03:32:45;7.90;;;3.70;;
75246;SDS011;63844;50.042;19.224;2024-01-16T03:34:23;5.60;;;3.20;;
75246;SDS011;63844;50.042;19.224;2024-01-16T03:35:59;7.40;;;3.70;;
75246;SDS011;63844;50.042;19.224;2024-01-16T03:37:37;7.60;;;3.40;;
75246;SDS011;63844;50.042;19.224;2024-01-16T03:39:15;6.80;;;3.50;;
75246;SDS011;63844;50.042;19.224;2024-01-16T03:40:51;6.70;;;3.10;;
75246;SDS011;63844;50.042;19.224;2024-01-16T03:42:28;7.30;;;2.80;;
75246;SDS011;63844;50.042;19.224;2024-01-16T03:44:04;6.30;;;3.20;;
75246;SDS011;63844;50.042;19.224;2024-01-16T03:45:40;7.00;;;3.10;;
75246;SDS011;63844;50.042;19.224;2024-01-16T03:47:17;5.80;;;2.70;;
75246;SDS011;63844;50.042;19.224;2024-01-16T03:48:54;8.00;;;3.10;;
75246;SDS011;63844;50.042;19.224;2024-01-16T03:50:30;5.40;;;2.90;;
75246;SDS011;63844;50.042;19.224;2024-01-16T03:52:07;5.60;;;2.90;;
75246;SDS011;63844;50.042;19.224;2024-01-16T03:53:43;4.30;;;2.50;;
75246;SDS011;63844;50.042;19.224;2024-01-16T03:55:20;5.70;;;2.90;;
75246;SDS011;63844;50.042;19.224;2024-01-16T03:56:57;5.10;;;2.20;;
75246;SDS011;63844;50.042;19.224;2024-01-16T03:58:33;4.40;;;2.40;;
75246;SDS011;63844;50.042;19.224;2024-01-16T04:00:13;2.10;;;0.80;;
75246;SDS011;63844;50.042;19.224;2024-01-16T04:01:50;5.10;;;2.60;;
75246;SDS011;63844;50.042;19.224;2024-01-16T04:03:26;4.20;;;2.20;;
75246;SDS011;63844;50.042;19.224;2024-01-16T04:05:03;6.60;;;2.30;;
75246;SDS011;63844;50.042;19.224;2024-01-16T04:06:40;4.30;;;2.20;;
75246;SDS011;63844;50.042;19.224;2024-01-16T04:08:16;5.20;;;2.60;;
75246;SDS011;63844;50.042;19.224;2024-01-16T04:09:53;6.10;;;2.40;;
75246;SDS011;63844;50.042;19.224;2024-01-16T04:11:29;3.40;;;2.10;;
75246;SDS011;63844;50.042;19.224;2024-01-16T04:13:06;6.40;;;2.90;;
75246;SDS011;63844;50.042;19.224;2024-01-16T04:14:42;5.10;;;3.00;;
75246;SDS011;63844;50.042;19.224;2024-01-16T04:16:18;5.90;;;2.90;;
75246;SDS011;63844;50.042;19.224;2024-01-16T04:17:55;6.10;;;2.90;;
75246;SDS011;63844;50.042;19.224;2024-01-16T04:19:31;4.90;;;2.50;;
75246;SDS011;63844;50.042;19.224;2024-01-16T04:21:10;6.20;;;3.10;;
75246;SDS011;63844;50.042;19.224;2024-01-16T04:22:46;7.20;;;3.20;;
75246;SDS011;63844;50.042;19.224;2024-01-16T04:24:23;5.60;;;2.60;;
75246;SDS011;63844;50.042;19.224;2024-01-16T04:25:59;4.40;;;2.30;;
75246;SDS011;63844;50.042;19.224;2024-01-16T04:27:36;5.10;;;2.80;;
75246;SDS011;63844;50.042;19.224;2024-01-16T04:29:12;8.40;;;3.00;;
75246;SDS011;63844;50.042;19.224;2024-01-16T04:30:50;5.10;;;3.10;;
75246;SDS011;63844;50.042;19.224;2024-01-16T04:32:26;7.00;;;2.90;;
75246;SDS011;63844;50.042;19.224;2024-01-16T04:34:03;6.90;;;3.00;;
75246;SDS011;63844;50.042;19.224;2024-01-16T04:35:39;6.50;;;3.80;;
75246;SDS011;63844;50.042;19.224;2024-01-16T04:37:16;7.20;;;3.40;;
75246;SDS011;63844;50.042;19.224;2024-01-16T04:38:52;6.90;;;3.40;;
75246;SDS011;63844;50.042;19.224;2024-01-16T04:40:28;6.60;;;3.10;;
75246;SDS011;63844;50.042;19.224;2024-01-16T04:42:05;8.10;;;3.30;;
75246;SDS011;63844;50.042;19.224;2024-01-16T04:43:41;7.60;;;3.80;;
75246;SDS011;63844;50.042;19.224;2024-01-16T04:45:18;6.30;;;3.50;;
75246;SDS011;63844;50.042;19.224;2024-01-16T04:46:54;5.80;;;3.10;;
75246;SDS011;63844;50.042;19.224;2024-01-16T04:48:30;5.10;;;2.50;;
75246;SDS011;63844;50.042;19.224;2024-01-16T04:50:07;7.60;;;3.90;;
75246;SDS011;63844;50.042;19.224;2024-01-16T04:51:44;7.60;;;3.40;;
75246;SDS011;63844;50.042;19.224;2024-01-16T04:53:20;6.40;;;3.40;;
75246;SDS011;63844;50.042;19.224;2024-01-16T04:54:57;7.40;;;3.50;;
75246;SDS011;63844;50.042;19.224;2024-01-16T04:56:33;8.10;;;4.30;;
75246;SDS011;63844;50.042;19.224;2024-01-16T04:58:09;6.10;;;3.10;;
75246;SDS011;63844;50.042;19.224;2024-01-16T04:59:46;7.90;;;4.10;;
75246;SDS011;63844;50.042;19.224;2024-01-16T05:01:22;9.40;;;4.70;;
75246;SDS011;63844;50.042;19.224;2024-01-16T05:02:59;7.30;;;4.00;;
75246;SDS011;63844;50.042;19.224;2024-01-16T05:04:39;7.60;;;3.90;;
75246;SDS011;63844;50.042;19.224;2024-01-16T05:06:15;8.60;;;4.20;;
75246;SDS011;63844;50.042;19.224;2024-01-16T05:07:52;7.90;;;4.20;;
75246;SDS011;63844;50.042;19.224;2024-01-16T05:09:29;6.90;;;3.70;;
75246;SDS011;63844;50.042;19.224;2024-01-16T05:11:06;8.00;;;3.70;;
75246;SDS011;63844;50.042;19.224;2024-01-16T05:14:19;6.60;;;3.10;;
75246;SDS011;63844;50.042;19.224;2024-01-16T05:15:55;6.80;;;2.80;;
75246;SDS011;63844;50.042;19.224;2024-01-16T05:17:32;9.90;;;4.10;;
75246;SDS011;63844;50.042;19.224;2024-01-16T05:19:09;10.00;;;4.10;;
75246;SDS011;63844;50.042;19.224;2024-01-16T05:20:45;8.40;;;4.20;;
75246;SDS011;63844;50.042;19.224;2024-01-16T05:22:22;9.20;;;3.90;;
75246;SDS011;63844;50.042;19.224;2024-01-16T05:23:59;9.80;;;4.40;;
75246;SDS011;63844;50.042;19.224;2024-01-16T05:25:35;8.00;;;4.00;;
75246;SDS011;63844;50.042;19.224;2024-01-16T05:27:11;7.00;;;3.70;;
75246;SDS011;63844;50.042;19.224;2024-01-16T05:28:48;6.10;;;3.50;;
75246;SDS011;63844;50.042;19.224;2024-01-16T05:32:01;8.30;;;3.10;;
75246;SDS011;63844;50.042;19.224;2024-01-16T05:33:37;6.90;;;3.10;;
75246;SDS011;63844;50.042;19.224;2024-01-16T05:35:14;6.90;;;3.10;;
75246;SDS011;63844;50.042;19.224;2024-01-16T05:36:50;7.10;;;2.70;;
75246;SDS011;63844;50.042;19.224;2024-01-16T05:38:27;8.10;;;3.60;;
75246;SDS011;63844;50.042;19.224;2024-01-16T05:40:03;7.30;;;3.70;;
75246;SDS011;63844;50.042;19.224;2024-01-16T05:41:42;6.70;;;4.10;;
75246;SDS011;63844;50.042;19.224;2024-01-16T05:43:18;8.70;;;5.10;;
75246;SDS011;63844;50.042;19.224;2024-01-16T05:44:54;6.40;;;3.30;;
75246;SDS011;63844;50.042;19.224;2024-01-16T05:46:31;7.80;;;3.30;;
75246;SDS011;63844;50.042;19.224;2024-01-16T05:48:08;8.30;;;4.20;;
75246;SDS011;63844;50.042;19.224;2024-01-16T05:49:44;6.60;;;3.30;;
75246;SDS011;63844;50.042;19.224;2024-01-16T05:51:21;9.80;;;4.30;;
75246;SDS011;63844;50.042;19.224;2024-01-16T05:52:57;9.30;;;4.70;;
75246;SDS011;63844;50.042;19.224;2024-01-16T05:54:34;7.40;;;4.30;;
75246;SDS011;63844;50.042;19.224;2024-01-16T05:56:10;9.20;;;3.80;;
75246;SDS011;63844;50.042;19.224;2024-01-16T05:57:47;8.80;;;4.50;;
75246;SDS011;63844;50.042;19.224;2024-01-16T05:59:23;10.20;;;4.60;;
75246;SDS011;63844;50.042;19.224;2024-01-16T06:00:59;10.40;;;4.80;;
75246;SDS011;63844;50.042;19.224;2024-01-16T06:02:36;10.20;;;5.10;;
75246;SDS011;63844;50.042;19.224;2024-01-16T06:04:12;9.50;;;4.50;;
75246;SDS011;63844;50.042;19.224;2024-01-16T06:05:49;16.50;;;8.30;;
75246;SDS011;63844;50.042;19.224;2024-01-16T06:09:02;16.10;;;6.70;;
75246;SDS011;63844;50.042;19.224;2024-01-16T06:10:41;13.10;;;6.00;;
75246;SDS011;63844;50.042;19.224;2024-01-16T06:13:54;20.90;;;9.20;;
75246;SDS011;63844;50.042;19.224;2024-01-16T06:17:07;14.70;;;5.10;;
75246;SDS011;63844;50.042;19.224;2024-01-16T06:18:43;12.70;;;6.20;;
75246;SDS011;63844;50.042;19.224;2024-01-16T06:21:56;20.00;;;7.20;;
75246;SDS011;63844;50.042;19.224;2024-01-16T06:23:33;15.60;;;7.10;;
75246;SDS011;63844;50.042;19.224;2024-01-16T06:26:45;14.20;;;6.60;;
75246;SDS011;63844;50.042;19.224;2024-01-16T06:28:22;13.60;;;5.80;;
75246;SDS011;63844;50.042;19.224;2024-01-16T06:29:58;12.40;;;6.20;;
75246;SDS011;63844;50.042;19.224;2024-01-16T06:31:35;11.30;;;5.50;;
75246;SDS011;63844;50.042;19.224;2024-01-16T06:33:11;12.20;;;5.80;;
75246;SDS011;63844;50.042;19.224;2024-01-16T06:34:48;15.70;;;6.40;;
75246;SDS011;63844;50.042;19.224;2024-01-16T06:38:01;11.50;;;6.00;;
75246;SDS011;63844;50.042;19.224;2024-01-16T06:39:38;11.90;;;6.40;;
75246;SDS011;63844;50.042;19.224;2024-01-16T06:41:15;11.40;;;6.30;;
75246;SDS011;63844;50.042;19.224;2024-01-16T06:42:52;11.70;;;5.80;;
75246;SDS011;63844;50.042;19.224;2024-01-16T06:44:28;11.70;;;5.80;;
75246;SDS011;63844;50.042;19.224;2024-01-16T06:46:04;13.30;;;6.80;;
75246;SDS011;63844;50.042;19.224;2024-01-16T06:47:41;16.20;;;6.30;;
75246;SDS011;63844;50.042;19.224;2024-01-16T06:49:18;12.00;;;6.80;;
75246;SDS011;63844;50.042;19.224;2024-01-16T06:50:55;11.30;;;4.90;;
75246;SDS011;63844;50.042;19.224;2024-01-16T06:52:31;14.80;;;6.30;;
75246;SDS011;63844;50.042;19.224;2024-01-16T06:54:08;10.30;;;5.60;;
75246;SDS011;63844;50.042;19.224;2024-01-16T06:55:44;13.00;;;6.70;;
75246;SDS011;63844;50.042;19.224;2024-01-16T06:57:21;10.10;;;5.40;;
75246;SDS011;63844;50.042;19.224;2024-01-16T06:58:57;15.50;;;7.90;;
75246;SDS011;63844;50.042;19.224;2024-01-16T07:00:34;12.00;;;5.90;;
75246;SDS011;63844;50.042;19.224;2024-01-16T07:02:11;15.20;;;7.10;;
75246;SDS011;63844;50.042;19.224;2024-01-16T07:03:47;14.40;;;6.40;;
75246;SDS011;63844;50.042;19.224;2024-01-16T07:05:24;13.80;;;6.90;;
75246;SDS011;63844;50.042;19.224;2024-01-16T07:07:00;10.50;;;5.20;;
75246;SDS011;63844;50.042;19.224;2024-01-16T07:08:37;13.70;;;5.90;;
75246;SDS011;63844;50.042;19.224;2024-01-16T07:10:13;11.90;;;6.40;;
75246;SDS011;63844;50.042;19.224;2024-01-16T07:11:54;14.20;;;6.00;;
75246;SDS011;63844;50.042;19.224;2024-01-16T07:13:30;9.60;;;5.30;;
75246;SDS011;63844;50.042;19.224;2024-01-16T07:15:07;11.40;;;5.10;;
75246;SDS011;63844;50.042;19.224;2024-01-16T07:16:44;12.20;;;5.80;;
75246;SDS011;63844;50.042;19.224;2024-01-16T07:18:20;9.10;;;5.00;;
75246;SDS011;63844;50.042;19.224;2024-01-16T07:19:57;14.00;;;6.90;;
75246;SDS011;63844;50.042;19.224;2024-01-16T07:21:35;16.30;;;8.80;;
75246;SDS011;63844;50.042;19.224;2024-01-16T07:23:11;13.50;;;6.90;;
75246;SDS011;63844;50.042;19.224;2024-01-16T07:24:48;10.30;;;5.20;;
75246;SDS011;63844;50.042;19.224;2024-01-16T07:26:24;10.00;;;4.80;;
75246;SDS011;63844;50.042;19.224;2024-01-16T07:28:01;9.40;;;5.20;;
75246;SDS011;63844;50.042;19.224;2024-01-16T07:29:38;9.60;;;4.40;;
75246;SDS011;63844;50.042;19.224;2024-01-16T07:31:15;8.90;;;4.40;;
75246;SDS011;63844;50.042;19.224;2024-01-16T07:32:55;8.40;;;3.40;;
75246;SDS011;63844;50.042;19.224;2024-01-16T07:34:32;7.80;;;4.30;;
75246;SDS011;63844;50.042;19.224;2024-01-16T07:36:09;8.10;;;3.40;;
75246;SDS011;63844;50.042;19.224;2024-01-16T07:37:46;8.30;;;3.90;;
75246;SDS011;63844;50.042;19.224;2024-01-16T07:39:22;8.20;;;4.20;;
75246;SDS011;63844;50.042;19.224;2024-01-16T07:40:59;8.40;;;3.60;;
75246;SDS011;63844;50.042;19.224;2024-01-16T07:42:36;10.40;;;3.50;;
75246;SDS011;63844;50.042;19.224;2024-01-16T07:44:12;8.10;;;3.70;;
75246;SDS011;63844;50.042;19.224;2024-01-16T07:45:49;9.40;;;4.20;;
75246;SDS011;63844;50.042;19.224;2024-01-16T07:47:26;7.40;;;4.00;;
75246;SDS011;63844;50.042;19.224;2024-01-16T07:49:02;4.90;;;2.50;;
75246;SDS011;63844;50.042;19.224;2024-01-16T07:50:39;7.60;;;3.70;;
75246;SDS011;63844;50.042;19.224;2024-01-16T07:52:15;9.00;;;3.60;;
75246;SDS011;63844;50.042;19.224;2024-01-16T07:53:52;5.50;;;2.20;;
75246;SDS011;63844;50.042;19.224;2024-01-16T07:55:42;6.00;;;2.90;;
75246;SDS011;63844;50.042;19.224;2024-01-16T07:57:19;6.50;;;2.80;;
75246;SDS011;63844;50.042;19.224;2024-01-16T07:58:55;9.00;;;3.40;;
75246;SDS011;63844;50.042;19.224;2024-01-16T08:00:32;6.60;;;2.80;;
75246;SDS011;63844;50.042;19.224;2024-01-16T08:02:08;9.90;;;3.70;;
75246;SDS011;63844;50.042;19.224;2024-01-16T08:03:45;11.50;;;3.60;;
75246;SDS011;63844;50.042;19.224;2024-01-16T08:05:21;12.00;;;3.70;;
75246;SDS011;63844;50.042;19.224;2024-01-16T08:07:01;8.10;;;3.70;;
75246;SDS011;63844;50.042;19.224;2024-01-16T08:08:38;8.60;;;3.30;;
75246;SDS011;63844;50.042;19.224;2024-01-16T08:10:14;5.00;;;2.60;;
75246;SDS011;63844;50.042;19.224;2024-01-16T08:11:51;7.10;;;2.80;;
75246;SDS011;63844;50.042;19.224;2024-01-16T08:13:27;13.30;;;5.40;;
75246;SDS011;63844;50.042;19.224;2024-01-16T08:15:05;8.30;;;3.70;;
75246;SDS011;63844;50.042;19.224;2024-01-16T08:16:43;7.70;;;4.10;;
75246;SDS011;63844;50.042;19.224;2024-01-16T08:18:20;6.80;;;3.40;;
75246;SDS011;63844;50.042;19.224;2024-01-16T08:19:56;10.20;;;5.30;;
75246;SDS011;63844;50.042;19.224;2024-01-16T08:21:33;6.10;;;3.80;;
75246;SDS011;63844;50.042;19.224;2024-01-16T08:23:09;5.50;;;2.80;;
75246;SDS011;63844;50.042;19.224;2024-01-16T08:24:46;7.40;;;3.90;;
75246;SDS011;63844;50.042;19.224;2024-01-16T08:26:22;7.70;;;3.70;;
75246;SDS011;63844;50.042;19.224;2024-01-16T08:27:59;7.60;;;3.40;;
75246;SDS011;63844;50.042;19.224;2024-01-16T08:29:37;7.10;;;3.50;;
75246;SDS011;63844;50.042;19.224;2024-01-16T08:31:16;8.30;;;3.40;;
75246;SDS011;63844;50.042;19.224;2024-01-16T08:32:56;9.40;;;4.20;;
75246;SDS011;63844;50.042;19.224;2024-01-16T08:34:33;6.80;;;3.90;;
75246;SDS011;63844;50.042;19.224;2024-01-16T08:36:10;8.80;;;3.70;;
75246;SDS011;63844;50.042;19.224;2024-01-16T08:37:47;6.90;;;3.10;;
75246;SDS011;63844;50.042;19.224;2024-01-16T08:39:24;6.50;;;2.70;;
75246;SDS011;63844;50.042;19.224;2024-01-16T08:41:00;5.50;;;2.40;;
75246;SDS011;63844;50.042;19.224;2024-01-16T08:42:37;6.00;;;3.00;;
75246;SDS011;63844;50.042;19.224;2024-01-16T08:44:13;10.20;;;3.50;;
75246;SDS011;63844;50.042;19.224;2024-01-16T08:45:51;8.80;;;3.50;;
75246;SDS011;63844;50.042;19.224;2024-01-16T08:47:27;8.30;;;3.60;;
75246;SDS011;63844;50.042;19.224;2024-01-16T08:49:04;8.50;;;3.60;;
75246;SDS011;63844;50.042;19.224;2024-01-16T08:50:40;7.60;;;3.00;;
75246;SDS011;63844;50.042;19.224;2024-01-16T08:52:17;6.20;;;3.30;;
75246;SDS011;63844;50.042;19.224;2024-01-16T08:53:53;6.30;;;3.00;;
75246;SDS011;63844;50.042;19.224;2024-01-16T08:55:30;9.10;;;3.30;;
75246;SDS011;63844;50.042;19.224;2024-01-16T08:57:06;4.90;;;2.30;;
75246;SDS011;63844;50.042;19.224;2024-01-16T08:58:43;4.50;;;2.10;;
75246;SDS011;63844;50.042;19.224;2024-01-16T09:00:19;4.70;;;2.20;;
75246;SDS011;63844;50.042;19.224;2024-01-16T09:01:55;6.70;;;3.10;;
75246;SDS011;63844;50.042;19.224;2024-01-16T09:03:35;4.40;;;1.50;;
75246;SDS011;63844;50.042;19.224;2024-01-16T09:05:12;7.50;;;2.80;;
75246;SDS011;63844;50.042;19.224;2024-01-16T09:06:49;5.10;;;1.90;;
75246;SDS011;63844;50.042;19.224;2024-01-16T09:08:26;4.50;;;2.30;;
75246;SDS011;63844;50.042;19.224;2024-01-16T09:10:03;5.20;;;2.10;;
75246;SDS011;63844;50.042;19.224;2024-01-16T09:11:40;5.10;;;2.10;;
75246;SDS011;63844;50.042;19.224;2024-01-16T09:13:17;9.60;;;3.20;;
75246;SDS011;63844;50.042;19.224;2024-01-16T09:14:53;7.50;;;4.20;;
75246;SDS011;63844;50.042;19.224;2024-01-16T09:16:29;7.20;;;3.00;;
75246;SDS011;63844;50.042;19.224;2024-01-16T09:18:06;5.30;;;2.40;;
75246;SDS011;63844;50.042;19.224;2024-01-16T09:19:43;7.30;;;2.30;;
75246;SDS011;63844;50.042;19.224;2024-01-16T09:21:19;4.10;;;2.80;;
75246;SDS011;63844;50.042;19.224;2024-01-16T09:22:55;6.50;;;2.30;;
75246;SDS011;63844;50.042;19.224;2024-01-16T09:24:32;11.10;;;3.70;;
75246;SDS011;63844;50.042;19.224;2024-01-16T09:26:08;7.40;;;3.10;;
75246;SDS011;63844;50.042;19.224;2024-01-16T09:27:45;5.60;;;2.90;;
75246;SDS011;63844;50.042;19.224;2024-01-16T09:29:21;6.10;;;3.00;;
75246;SDS011;63844;50.042;19.224;2024-01-16T09:30:59;5.70;;;2.70;;
75246;SDS011;63844;50.042;19.224;2024-01-16T09:32:35;6.00;;;2.90;;
75246;SDS011;63844;50.042;19.224;2024-01-16T09:34:12;6.00;;;3.00;;
75246;SDS011;63844;50.042;19.224;2024-01-16T09:35:49;5.20;;;2.30;;
75246;SDS011;63844;50.042;19.224;2024-01-16T09:37:25;6.50;;;2.90;;
75246;SDS011;63844;50.042;19.224;2024-01-16T09:39:04;6.10;;;2.90;;
75246;SDS011;63844;50.042;19.224;2024-01-16T09:40:44;6.50;;;2.70;;
75246;SDS011;63844;50.042;19.224;2024-01-16T09:42:20;7.40;;;2.90;;
75246;SDS011;63844;50.042;19.224;2024-01-16T09:43:57;6.00;;;2.40;;
75246;SDS011;63844;50.042;19.224;2024-01-16T09:45:33;5.80;;;2.60;;
75246;SDS011;63844;50.042;19.224;2024-01-16T09:47:13;7.40;;;2.70;;
75246;SDS011;63844;50.042;19.224;2024-01-16T09:48:52;12.50;;;3.90;;
75246;SDS011;63844;50.042;19.224;2024-01-16T09:52:46;13.80;;;4.60;;
75246;SDS011;63844;50.042;19.224;2024-01-16T09:54:26;8.10;;;3.70;;
75246;SDS011;63844;50.042;19.224;2024-01-16T09:56:03;7.50;;;3.20;;
75246;SDS011;63844;50.042;19.224;2024-01-16T09:57:44;9.10;;;3.10;;